Terminal Aerodrome Forecast
Issued by NWS

Home | Current Version | Previous Version | Text Only | Print | Product List | Glossary On
Versions: 1 2 3 4 5 6 7 8 9 10 11 12 13 14 15 16 17 18 19 20
000
FTUS43 KILX 250000 AAA
TAFBMI
TAF AMD
KBMI 250043Z 2501/2524 21006KT P6SM BKN100
     FM251000 13005KT 4SM BR OVC060
     FM251300 07007KT 2SM -RAPL OVC008
     FM251600 03012G18KT 1SM -SN OVC003
     FM252200 01015G23KT 3SM -SN BR OVC008=

USA.gov is the U.S. government's official web portal to all federal, state and local government web resources and services.